sensor_id;sensor_type;location;lat;lon;timestamp;temperature;humidity
18444;DHT22;9350;53.176;8.194;2022-10-03T00:02:52;11.70;99.90
18444;DHT22;9350;53.176;8.194;2022-10-03T00:05:35;11.60;99.90
18444;DHT22;9350;53.176;8.194;2022-10-03T00:08:16;11.60;99.90
18444;DHT22;9350;53.176;8.194;2022-10-03T00:10:55;11.60;99.90
18444;DHT22;9350;53.176;8.194;2022-10-03T00:13:27;11.60;99.90
18444;DHT22;9350;53.176;8.194;2022-10-03T00:16:06;11.60;99.90
18444;DHT22;9350;53.176;8.194;2022-10-03T00:18:44;11.50;99.90
18444;DHT22;9350;53.176;8.194;2022-10-03T00:21:28;11.50;99.90
18444;DHT22;9350;53.176;8.194;2022-10-03T00:24:08;11.50;99.90
18444;DHT22;9350;53.176;8.194;2022-10-03T00:26:45;11.40;99.90
18444;DHT22;9350;53.176;8.194;2022-10-03T00:29:34;11.40;99.90
18444;DHT22;9350;53.176;8.194;2022-10-03T00:32:16;11.50;99.90
18444;DHT22;9350;53.176;8.194;2022-10-03T00:35:00;11.40;99.90
18444;DHT22;9350;53.176;8.194;2022-10-03T00:37:31;11.50;99.90
18444;DHT22;9350;53.176;8.194;2022-10-03T00:43:24;11.40;99.90
18444;DHT22;9350;53.176;8.194;2022-10-03T00:46:24;11.40;99.90
18444;DHT22;9350;53.176;8.194;2022-10-03T00:49:37;11.50;99.90
18444;DHT22;9350;53.176;8.194;2022-10-03T00:52:29;11.40;99.90
18444;DHT22;9350;53.176;8.194;2022-10-03T00:55:08;11.50;99.90
18444;DHT22;9350;53.176;8.194;2022-10-03T00:57:58;11.30;99.90
18444;DHT22;9350;53.176;8.194;2022-10-03T01:00:28;11.30;99.90
18444;DHT22;9350;53.176;8.194;2022-10-03T01:03:16;11.30;99.90
18444;DHT22;9350;53.176;8.194;2022-10-03T01:05:57;11.30;99.90
18444;DHT22;9350;53.176;8.194;2022-10-03T01:08:51;11.30;99.90
18444;DHT22;9350;53.176;8.194;2022-10-03T01:11:40;11.30;99.90
18444;DHT22;9350;53.176;8.194;2022-10-03T01:14:22;11.30;99.90
18444;DHT22;9350;53.176;8.194;2022-10-03T01:17:00;11.40;99.90
18444;DHT22;9350;53.176;8.194;2022-10-03T01:19:56;11.50;99.90
18444;DHT22;9350;53.176;8.194;2022-10-03T01:22:44;11.50;99.90
18444;DHT22;9350;53.176;8.194;2022-10-03T01:25:19;11.50;99.90
18444;DHT22;9350;53.176;8.194;2022-10-03T01:27:59;11.50;99.90
18444;DHT22;9350;53.176;8.194;2022-10-03T01:30:49;11.40;99.90
18444;DHT22;9350;53.176;8.194;2022-10-03T01:33:23;11.40;99.90
18444;DHT22;9350;53.176;8.194;2022-10-03T01:35:55;11.30;99.90
18444;DHT22;9350;53.176;8.194;2022-10-03T01:38:29;11.30;99.90
18444;DHT22;9350;53.176;8.194;2022-10-03T01:41:03;11.30;99.90
18444;DHT22;9350;53.176;8.194;2022-10-03T01:43:36;11.20;99.90
18444;DHT22;9350;53.176;8.194;2022-10-03T01:46:16;11.20;99.90
18444;DHT22;9350;53.176;8.194;2022-10-03T01:48:52;11.10;99.90
18444;DHT22;9350;53.176;8.194;2022-10-03T01:51:23;11.00;99.90
18444;DHT22;9350;53.176;8.194;2022-10-03T01:54:05;11.00;99.90
18444;DHT22;9350;53.176;8.194;2022-10-03T01:56:45;11.00;99.90
18444;DHT22;9350;53.176;8.194;2022-10-03T01:59:18;11.00;99.90
18444;DHT22;9350;53.176;8.194;2022-10-03T02:01:49;11.00;99.90
18444;DHT22;9350;53.176;8.194;2022-10-03T02:04:25;11.00;99.90
18444;DHT22;9350;53.176;8.194;2022-10-03T02:07:01;11.00;99.90
18444;DHT22;9350;53.176;8.194;2022-10-03T02:09:38;11.00;99.90
18444;DHT22;9350;53.176;8.194;2022-10-03T02:12:09;11.00;99.90
18444;DHT22;9350;53.176;8.194;2022-10-03T02:14:46;11.00;99.90
18444;DHT22;9350;53.176;8.194;2022-10-03T02:17:24;11.00;99.90
18444;DHT22;9350;53.176;8.194;2022-10-03T02:19:59;11.00;99.90
18444;DHT22;9350;53.176;8.194;2022-10-03T02:22:30;11.20;99.90
18444;DHT22;9350;53.176;8.194;2022-10-03T02:25:11;11.30;99.90
18444;DHT22;9350;53.176;8.194;2022-10-03T02:28:05;11.30;99.90
18444;DHT22;9350;53.176;8.194;2022-10-03T02:30:45;11.40;99.90
18444;DHT22;9350;53.176;8.194;2022-10-03T02:33:55;11.50;99.90
18444;DHT22;9350;53.176;8.194;2022-10-03T02:36:51;11.50;99.90
18444;DHT22;9350;53.176;8.194;2022-10-03T02:39:47;11.50;99.90
18444;DHT22;9350;53.176;8.194;2022-10-03T02:45:47;11.50;99.90
18444;DHT22;9350;53.176;8.194;2022-10-03T02:48:38;11.70;99.90
18444;DHT22;9350;53.176;8.194;2022-10-03T02:54:48;11.50;99.90
18444;DHT22;9350;53.176;8.194;2022-10-03T03:00:19;11.40;99.90
18444;DHT22;9350;53.176;8.194;2022-10-03T03:03:09;11.30;99.90
18444;DHT22;9350;53.176;8.194;2022-10-03T03:06:12;11.30;99.90
18444;DHT22;9350;53.176;8.194;2022-10-03T03:17:37;11.00;99.90
18444;DHT22;9350;53.176;8.194;2022-10-03T03:20:31;11.00;99.90
18444;DHT22;9350;53.176;8.194;2022-10-03T03:23:18;10.90;99.90
18444;DHT22;9350;53.176;8.194;2022-10-03T03:26:03;10.90;99.90
18444;DHT22;9350;53.176;8.194;2022-10-03T03:28:39;10.90;99.90
18444;DHT22;9350;53.176;8.194;2022-10-03T03:31:13;10.90;99.90
18444;DHT22;9350;53.176;8.194;2022-10-03T03:33:52;10.80;99.90
18444;DHT22;9350;53.176;8.194;2022-10-03T03:36:26;10.90;99.90
18444;DHT22;9350;53.176;8.194;2022-10-03T03:39:05;10.90;99.90
18444;DHT22;9350;53.176;8.194;2022-10-03T03:41:49;10.90;99.90
18444;DHT22;9350;53.176;8.194;2022-10-03T03:44:36;10.90;99.90
18444;DHT22;9350;53.176;8.194;2022-10-03T03:47:28;10.90;99.90
18444;DHT22;9350;53.176;8.194;2022-10-03T03:50:08;10.80;99.90
18444;DHT22;9350;53.176;8.194;2022-10-03T03:52:49;10.80;99.90
18444;DHT22;9350;53.176;8.194;2022-10-03T03:55:31;10.80;99.90
18444;DHT22;9350;53.176;8.194;2022-10-03T03:58:15;10.80;99.90
18444;DHT22;9350;53.176;8.194;2022-10-03T04:00:57;10.70;99.90
18444;DHT22;9350;53.176;8.194;2022-10-03T04:03:39;10.70;99.90
18444;DHT22;9350;53.176;8.194;2022-10-03T04:06:31;10.80;99.90
18444;DHT22;9350;53.176;8.194;2022-10-03T04:09:10;10.60;99.90
18444;DHT22;9350;53.176;8.194;2022-10-03T04:11:50;10.80;99.90
18444;DHT22;9350;53.176;8.194;2022-10-03T04:17:43;10.80;99.90
18444;DHT22;9350;53.176;8.194;2022-10-03T04:20:42;10.90;99.90
18444;DHT22;9350;53.176;8.194;2022-10-03T04:23:20;10.90;99.90
18444;DHT22;9350;53.176;8.194;2022-10-03T04:26:10;10.90;99.90
18444;DHT22;9350;53.176;8.194;2022-10-03T04:28:57;11.00;99.90
18444;DHT22;9350;53.176;8.194;2022-10-03T04:31:38;10.90;99.90
18444;DHT22;9350;53.176;8.194;2022-10-03T04:34:21;10.90;99.90
18444;DHT22;9350;53.176;8.194;2022-10-03T04:37:07;11.00;99.90
18444;DHT22;9350;53.176;8.194;2022-10-03T04:39:44;10.90;99.90
18444;DHT22;9350;53.176;8.194;2022-10-03T04:42:21;10.90;99.90
18444;DHT22;9350;53.176;8.194;2022-10-03T04:45:15;10.80;99.90
18444;DHT22;9350;53.176;8.194;2022-10-03T04:47:47;10.80;99.90
18444;DHT22;9350;53.176;8.194;2022-10-03T04:50:34;10.90;99.90
18444;DHT22;9350;53.176;8.194;2022-10-03T04:53:16;10.80;99.90
18444;DHT22;9350;53.176;8.194;2022-10-03T04:55:48;10.80;99.90
18444;DHT22;9350;53.176;8.194;2022-10-03T04:58:25;10.80;99.90
18444;DHT22;9350;53.176;8.194;2022-10-03T05:01:01;10.90;99.90
18444;DHT22;9350;53.176;8.194;2022-10-03T05:03:39;10.80;99.90
18444;DHT22;9350;53.176;8.194;2022-10-03T05:06:27;10.90;99.90
18444;DHT22;9350;53.176;8.194;2022-10-03T05:09:00;10.90;99.90
18444;DHT22;9350;53.176;8.194;2022-10-03T05:11:44;11.00;99.90
18444;DHT22;9350;53.176;8.194;2022-10-03T05:14:19;11.00;99.90
18444;DHT22;9350;53.176;8.194;2022-10-03T05:16:56;11.00;99.90
18444;DHT22;9350;53.176;8.194;2022-10-03T05:19:45;11.00;99.90
18444;DHT22;9350;53.176;8.194;2022-10-03T05:22:28;11.00;99.90
18444;DHT22;9350;53.176;8.194;2022-10-03T05:25:01;10.90;99.90
18444;DHT22;9350;53.176;8.194;2022-10-03T05:27:40;10.90;99.90
18444;DHT22;9350;53.176;8.194;2022-10-03T05:30:17;10.80;99.90
18444;DHT22;9350;53.176;8.194;2022-10-03T05:32:49;10.90;99.90
18444;DHT22;9350;53.176;8.194;2022-10-03T05:35:28;10.80;99.90
18444;DHT22;9350;53.176;8.194;2022-10-03T05:38:19;10.80;99.90
18444;DHT22;9350;53.176;8.194;2022-10-03T05:41:00;10.80;99.90
18444;DHT22;9350;53.176;8.194;2022-10-03T05:43:38;10.80;99.90
18444;DHT22;9350;53.176;8.194;2022-10-03T05:46:18;10.80;99.90
18444;DHT22;9350;53.176;8.194;2022-10-03T05:48:47;10.80;99.90
18444;DHT22;9350;53.176;8.194;2022-10-03T05:54:44;10.90;99.90
18444;DHT22;9350;53.176;8.194;2022-10-03T05:57:50;10.80;99.90
18444;DHT22;9350;53.176;8.194;2022-10-03T06:00:21;10.80;99.90
18444;DHT22;9350;53.176;8.194;2022-10-03T06:03:00;10.70;99.90
18444;DHT22;9350;53.176;8.194;2022-10-03T06:05:33;10.80;99.90
18444;DHT22;9350;53.176;8.194;2022-10-03T06:09:01;10.80;99.90
18444;DHT22;9350;53.176;8.194;2022-10-03T06:15:06;10.80;99.90
18444;DHT22;9350;53.176;8.194;2022-10-03T06:17:56;10.90;99.90
18444;DHT22;9350;53.176;8.194;2022-10-03T06:27:19;11.10;99.90
18444;DHT22;9350;53.176;8.194;2022-10-03T06:30:16;11.20;99.90
18444;DHT22;9350;53.176;8.194;2022-10-03T06:36:13;11.30;99.90
18444;DHT22;9350;53.176;8.194;2022-10-03T06:42:24;11.40;99.90
18444;DHT22;9350;53.176;8.194;2022-10-03T06:48:06;11.40;99.90
18444;DHT22;9350;53.176;8.194;2022-10-03T06:50:47;11.40;99.90
18444;DHT22;9350;53.176;8.194;2022-10-03T06:53:37;11.50;99.90
18444;DHT22;9350;53.176;8.194;2022-10-03T06:56:25;11.60;99.90
18444;DHT22;9350;53.176;8.194;2022-10-03T06:59:37;11.60;99.90
18444;DHT22;9350;53.176;8.194;2022-10-03T07:02:42;11.70;99.90
18444;DHT22;9350;53.176;8.194;2022-10-03T07:08:57;11.70;99.90
18444;DHT22;9350;53.176;8.194;2022-10-03T07:11:53;11.70;99.90
18444;DHT22;9350;53.176;8.194;2022-10-03T07:17:45;11.80;99.90
18444;DHT22;9350;53.176;8.194;2022-10-03T07:20:37;11.80;99.90
18444;DHT22;9350;53.176;8.194;2022-10-03T07:29:26;11.90;99.90
18444;DHT22;9350;53.176;8.194;2022-10-03T07:32:28;11.90;99.90
18444;DHT22;9350;53.176;8.194;2022-10-03T07:35:40;11.80;99.90
18444;DHT22;9350;53.176;8.194;2022-10-03T07:38:40;11.90;99.90
18444;DHT22;9350;53.176;8.194;2022-10-03T07:47:47;12.20;99.90
18444;DHT22;9350;53.176;8.194;2022-10-03T07:50:49;12.30;99.90
18444;DHT22;9350;53.176;8.194;2022-10-03T08:02:40;12.40;99.90
18444;DHT22;9350;53.176;8.194;2022-10-03T08:05:20;12.50;99.90
18444;DHT22;9350;53.176;8.194;2022-10-03T08:08:05;12.50;99.90
18444;DHT22;9350;53.176;8.194;2022-10-03T08:11:06;12.70;99.90
18444;DHT22;9350;53.176;8.194;2022-10-03T08:13:49;12.70;99.90
18444;DHT22;9350;53.176;8.194;2022-10-03T08:16:39;12.70;99.90
18444;DHT22;9350;53.176;8.194;2022-10-03T08:19:23;12.70;99.90
18444;DHT22;9350;53.176;8.194;2022-10-03T08:22:02;12.70;99.90
18444;DHT22;9350;53.176;8.194;2022-10-03T08:25:07;12.70;99.90
18444;DHT22;9350;53.176;8.194;2022-10-03T08:27:59;12.70;99.90
18444;DHT22;9350;53.176;8.194;2022-10-03T08:30:42;12.80;99.90
18444;DHT22;9350;53.176;8.194;2022-10-03T08:33:38;12.80;99.90
18444;DHT22;9350;53.176;8.194;2022-10-03T08:39:29;12.90;99.90
18444;DHT22;9350;53.176;8.194;2022-10-03T08:42:23;12.90;99.90
18444;DHT22;9350;53.176;8.194;2022-10-03T08:45:22;12.90;99.90
18444;DHT22;9350;53.176;8.194;2022-10-03T08:51:32;13.00;99.90
18444;DHT22;9350;53.176;8.194;2022-10-03T08:57:38;13.10;99.90
18444;DHT22;9350;53.176;8.194;2022-10-03T09:00:18;13.10;99.90
18444;DHT22;9350;53.176;8.194;2022-10-03T09:03:25;13.20;99.90
18444;DHT22;9350;53.176;8.194;2022-10-03T09:09:32;13.20;99.90
18444;DHT22;9350;53.176;8.194;2022-10-03T09:12:31;13.30;99.90
18444;DHT22;9350;53.176;8.194;2022-10-03T09:15:17;13.40;99.90
18444;DHT22;9350;53.176;8.194;2022-10-03T09:18:12;13.40;99.90
18444;DHT22;9350;53.176;8.194;2022-10-03T09:24:10;13.50;99.90
18444;DHT22;9350;53.176;8.194;2022-10-03T09:30:14;13.60;99.90
18444;DHT22;9350;53.176;8.194;2022-10-03T09:36:06;13.70;99.90
18444;DHT22;9350;53.176;8.194;2022-10-03T09:38:54;13.80;99.90
18444;DHT22;9350;53.176;8.194;2022-10-03T09:44:34;13.80;99.90
18444;DHT22;9350;53.176;8.194;2022-10-03T09:47:22;13.80;99.90
18444;DHT22;9350;53.176;8.194;2022-10-03T09:50:20;13.80;99.90
18444;DHT22;9350;53.176;8.194;2022-10-03T09:53:29;13.90;99.90
18444;DHT22;9350;53.176;8.194;2022-10-03T09:59:16;14.00;99.90
18444;DHT22;9350;53.176;8.194;2022-10-03T10:01:50;14.10;99.90
18444;DHT22;9350;53.176;8.194;2022-10-03T10:04:43;14.30;99.90
18444;DHT22;9350;53.176;8.194;2022-10-03T10:07:39;14.20;99.90
18444;DHT22;9350;53.176;8.194;2022-10-03T10:13:22;14.30;99.90
18444;DHT22;9350;53.176;8.194;2022-10-03T10:16:24;14.30;99.90
18444;DHT22;9350;53.176;8.194;2022-10-03T10:19:33;14.40;99.90
18444;DHT22;9350;53.176;8.194;2022-10-03T10:22:37;14.50;99.90
18444;DHT22;9350;53.176;8.194;2022-10-03T10:25:23;14.60;99.90
18444;DHT22;9350;53.176;8.194;2022-10-03T10:34:17;14.70;99.90
18444;DHT22;9350;53.176;8.194;2022-10-03T10:37:21;14.60;99.90
18444;DHT22;9350;53.176;8.194;2022-10-03T10:46:04;14.50;99.90
18444;DHT22;9350;53.176;8.194;2022-10-03T10:52:13;14.50;99.90
18444;DHT22;9350;53.176;8.194;2022-10-03T10:55:24;14.50;99.90
18444;DHT22;9350;53.176;8.194;2022-10-03T11:01:12;14.50;99.90
18444;DHT22;9350;53.176;8.194;2022-10-03T11:07:15;14.70;99.90
18444;DHT22;9350;53.176;8.194;2022-10-03T11:09:53;14.60;99.90
18444;DHT22;9350;53.176;8.194;2022-10-03T11:19:10;14.50;99.90
18444;DHT22;9350;53.176;8.194;2022-10-03T11:22:11;14.40;99.90
18444;DHT22;9350;53.176;8.194;2022-10-03T11:28:40;14.40;99.90
18444;DHT22;9350;53.176;8.194;2022-10-03T11:31:47;14.30;99.90
18444;DHT22;9350;53.176;8.194;2022-10-03T11:37:45;14.50;99.90
18444;DHT22;9350;53.176;8.194;2022-10-03T11:40:33;14.60;99.90
18444;DHT22;9350;53.176;8.194;2022-10-03T11:43:33;14.90;99.90
18444;DHT22;9350;53.176;8.194;2022-10-03T11:46:26;14.90;99.90
18444;DHT22;9350;53.176;8.194;2022-10-03T11:49:01;15.00;99.90
18444;DHT22;9350;53.176;8.194;2022-10-03T11:51:39;15.00;99.90
18444;DHT22;9350;53.176;8.194;2022-10-03T11:54:18;15.10;99.90
18444;DHT22;9350;53.176;8.194;2022-10-03T11:56:48;15.20;99.90
18444;DHT22;9350;53.176;8.194;2022-10-03T11:59:53;15.30;99.90
18444;DHT22;9350;53.176;8.194;2022-10-03T12:05:23;15.10;99.90
18444;DHT22;9350;53.176;8.194;2022-10-03T12:08:05;15.20;99.90
18444;DHT22;9350;53.176;8.194;2022-10-03T12:11:02;15.10;99.90
18444;DHT22;9350;53.176;8.194;2022-10-03T12:13:37;15.10;99.90
18444;DHT22;9350;53.176;8.194;2022-10-03T12:16:14;15.00;99.90
18444;DHT22;9350;53.176;8.194;2022-10-03T12:18:55;15.00;99.90
18444;DHT22;9350;53.176;8.194;2022-10-03T12:21:31;15.10;99.90
18444;DHT22;9350;53.176;8.194;2022-10-03T12:24:14;15.30;99.90
18444;DHT22;9350;53.176;8.194;2022-10-03T12:26:51;15.40;99.90
18444;DHT22;9350;53.176;8.194;2022-10-03T12:29:21;15.50;99.90
18444;DHT22;9350;53.176;8.194;2022-10-03T12:32:03;15.50;99.90
18444;DHT22;9350;53.176;8.194;2022-10-03T12:34:38;15.50;99.90
18444;DHT22;9350;53.176;8.194;2022-10-03T12:37:30;15.60;99.90
18444;DHT22;9350;53.176;8.194;2022-10-03T12:40:03;15.70;99.90
18444;DHT22;9350;53.176;8.194;2022-10-03T12:42:34;15.80;99.90
18444;DHT22;9350;53.176;8.194;2022-10-03T12:45:08;15.80;99.90
18444;DHT22;9350;53.176;8.194;2022-10-03T12:47:58;15.70;99.90
18444;DHT22;9350;53.176;8.194;2022-10-03T12:50:45;15.60;99.90
18444;DHT22;9350;53.176;8.194;2022-10-03T12:53:26;15.50;99.90
18444;DHT22;9350;53.176;8.194;2022-10-03T12:56:13;15.60;99.90
18444;DHT22;9350;53.176;8.194;2022-10-03T12:58:49;15.60;99.90
18444;DHT22;9350;53.176;8.194;2022-10-03T13:01:33;15.50;99.90
18444;DHT22;9350;53.176;8.194;2022-10-03T13:04:10;15.60;99.90
18444;DHT22;9350;53.176;8.194;2022-10-03T13:06:48;15.50;99.90
18444;DHT22;9350;53.176;8.194;2022-10-03T13:09:48;15.50;99.90
18444;DHT22;9350;53.176;8.194;2022-10-03T13:12:29;15.60;99.90
18444;DHT22;9350;53.176;8.194;2022-10-03T13:18:28;15.40;99.90
18444;DHT22;9350;53.176;8.194;2022-10-03T13:21:02;15.70;99.90
18444;DHT22;9350;53.176;8.194;2022-10-03T13:23:40;15.60;99.90
18444;DHT22;9350;53.176;8.194;2022-10-03T13:26:13;15.40;99.90
18444;DHT22;9350;53.176;8.194;2022-10-03T13:29:11;15.50;99.90
18444;DHT22;9350;53.176;8.194;2022-10-03T13:31:53;15.40;99.90
18444;DHT22;9350;53.176;8.194;2022-10-03T13:34:24;15.30;99.90
18444;DHT22;9350;53.176;8.194;2022-10-03T13:36:55;15.40;99.90
18444;DHT22;9350;53.176;8.194;2022-10-03T13:39:25;15.40;99.90
18444;DHT22;9350;53.176;8.194;2022-10-03T13:42:09;15.40;99.90
18444;DHT22;9350;53.176;8.194;2022-10-03T13:44:39;15.40;99.90
18444;DHT22;9350;53.176;8.194;2022-10-03T13:47:22;15.50;99.90
18444;DHT22;9350;53.176;8.194;2022-10-03T13:49:53;15.50;99.90
18444;DHT22;9350;53.176;8.194;2022-10-03T13:52:30;15.50;99.90
18444;DHT22;9350;53.176;8.194;2022-10-03T13:55:17;15.60;99.90
18444;DHT22;9350;53.176;8.194;2022-10-03T14:00:41;15.60;99.90
18444;DHT22;9350;53.176;8.194;2022-10-03T14:03:21;15.50;99.90
18444;DHT22;9350;53.176;8.194;2022-10-03T14:06:17;15.50;99.90
18444;DHT22;9350;53.176;8.194;2022-10-03T14:08:58;15.50;99.90
18444;DHT22;9350;53.176;8.194;2022-10-03T14:11:34;15.50;99.90
18444;DHT22;9350;53.176;8.194;2022-10-03T14:14:27;15.40;99.90
18444;DHT22;9350;53.176;8.194;2022-10-03T14:17:05;15.40;99.90
18444;DHT22;9350;53.176;8.194;2022-10-03T14:19:40;15.50;99.90
18444;DHT22;9350;53.176;8.194;2022-10-03T14:22:18;15.40;99.90
18444;DHT22;9350;53.176;8.194;2022-10-03T14:24:58;15.40;99.90
18444;DHT22;9350;53.176;8.194;2022-10-03T14:27:43;15.30;99.90
18444;DHT22;9350;53.176;8.194;2022-10-03T14:30:15;15.30;99.90
18444;DHT22;9350;53.176;8.194;2022-10-03T14:35:35;15.50;99.90
18444;DHT22;9350;53.176;8.194;2022-10-03T14:38:13;15.30;99.90
18444;DHT22;9350;53.176;8.194;2022-10-03T14:40:45;15.30;99.90
18444;DHT22;9350;53.176;8.194;2022-10-03T14:43:23;15.40;99.90
18444;DHT22;9350;53.176;8.194;2022-10-03T14:45:55;15.40;99.90
18444;DHT22;9350;53.176;8.194;2022-10-03T14:48:27;15.40;99.90
18444;DHT22;9350;53.176;8.194;2022-10-03T14:50:59;15.40;99.90
18444;DHT22;9350;53.176;8.194;2022-10-03T14:53:32;15.40;99.90
18444;DHT22;9350;53.176;8.194;2022-10-03T14:56:01;15.40;99.90
18444;DHT22;9350;53.176;8.194;2022-10-03T14:58:33;15.40;99.90
18444;DHT22;9350;53.176;8.194;2022-10-03T15:01:06;15.40;99.90
18444;DHT22;9350;53.176;8.194;2022-10-03T15:03:40;15.50;99.90
18444;DHT22;9350;53.176;8.194;2022-10-03T15:06:30;15.50;99.90
18444;DHT22;9350;53.176;8.194;2022-10-03T15:09:00;15.40;99.90
18444;DHT22;9350;53.176;8.194;2022-10-03T15:11:29;15.30;99.90
18444;DHT22;9350;53.176;8.194;2022-10-03T15:14:00;15.30;99.90
18444;DHT22;9350;53.176;8.194;2022-10-03T15:16:32;15.30;99.90
18444;DHT22;9350;53.176;8.194;2022-10-03T15:19:04;15.30;99.90
18444;DHT22;9350;53.176;8.194;2022-10-03T15:21:33;15.30;99.90
18444;DHT22;9350;53.176;8.194;2022-10-03T15:24:03;15.40;99.90
18444;DHT22;9350;53.176;8.194;2022-10-03T15:26:33;15.40;99.90
18444;DHT22;9350;53.176;8.194;2022-10-03T15:29:03;15.30;99.90
18444;DHT22;9350;53.176;8.194;2022-10-03T15:31:36;15.20;99.90
18444;DHT22;9350;53.176;8.194;2022-10-03T15:34:05;15.20;99.90
18444;DHT22;9350;53.176;8.194;2022-10-03T15:36:40;15.20;99.90
18444;DHT22;9350;53.176;8.194;2022-10-03T15:39:17;15.10;99.90
18444;DHT22;9350;53.176;8.194;2022-10-03T15:41:52;15.10;99.90
18444;DHT22;9350;53.176;8.194;2022-10-03T15:44:23;15.10;99.90
18444;DHT22;9350;53.176;8.194;2022-10-03T15:46:56;15.00;99.90
18444;DHT22;9350;53.176;8.194;2022-10-03T15:49:28;15.00;99.90
18444;DHT22;9350;53.176;8.194;2022-10-03T15:51:57;15.00;99.90
18444;DHT22;9350;53.176;8.194;2022-10-03T15:54:28;15.10;99.90
18444;DHT22;9350;53.176;8.194;2022-10-03T15:56:58;15.10;99.90
18444;DHT22;9350;53.176;8.194;2022-10-03T15:59:29;15.10;99.90
18444;DHT22;9350;53.176;8.194;2022-10-03T16:02:06;15.00;99.90
18444;DHT22;9350;53.176;8.194;2022-10-03T16:04:35;15.00;99.90
18444;DHT22;9350;53.176;8.194;2022-10-03T16:07:08;15.00;99.90
18444;DHT22;9350;53.176;8.194;2022-10-03T16:09:42;15.00;99.90
18444;DHT22;9350;53.176;8.194;2022-10-03T16:12:46;15.00;99.90
18444;DHT22;9350;53.176;8.194;2022-10-03T16:15:20;14.90;99.90
18444;DHT22;9350;53.176;8.194;2022-10-03T16:17:51;14.90;99.90
18444;DHT22;9350;53.176;8.194;2022-10-03T16:20:22;14.90;99.90
18444;DHT22;9350;53.176;8.194;2022-10-03T16:22:52;14.90;99.90
18444;DHT22;9350;53.176;8.194;2022-10-03T16:25:23;14.80;99.90
18444;DHT22;9350;53.176;8.194;2022-10-03T16:27:53;14.80;99.90
18444;DHT22;9350;53.176;8.194;2022-10-03T16:30:22;14.80;99.90
18444;DHT22;9350;53.176;8.194;2022-10-03T16:33:01;14.80;99.90
18444;DHT22;9350;53.176;8.194;2022-10-03T16:35:33;14.70;99.90
18444;DHT22;9350;53.176;8.194;2022-10-03T16:38:02;14.60;99.90
18444;DHT22;9350;53.176;8.194;2022-10-03T16:40:31;14.50;99.90
18444;DHT22;9350;53.176;8.194;2022-10-03T16:43:03;14.40;99.90
18444;DHT22;9350;53.176;8.194;2022-10-03T16:45:38;14.40;99.90
18444;DHT22;9350;53.176;8.194;2022-10-03T16:48:12;14.30;99.90
18444;DHT22;9350;53.176;8.194;2022-10-03T16:50:58;14.20;99.90
18444;DHT22;9350;53.176;8.194;2022-10-03T16:53:27;14.20;99.90
18444;DHT22;9350;53.176;8.194;2022-10-03T16:55:56;14.20;99.90
18444;DHT22;9350;53.176;8.194;2022-10-03T16:58:27;14.10;99.90
18444;DHT22;9350;53.176;8.194;2022-10-03T17:00:58;14.00;99.90
18444;DHT22;9350;53.176;8.194;2022-10-03T17:03:29;14.00;99.90
18444;DHT22;9350;53.176;8.194;2022-10-03T17:05:59;13.90;99.90
18444;DHT22;9350;53.176;8.194;2022-10-03T17:08:28;13.90;99.90
18444;DHT22;9350;53.176;8.194;2022-10-03T17:10:58;13.80;99.90
18444;DHT22;9350;53.176;8.194;2022-10-03T17:13:36;13.70;99.90
18444;DHT22;9350;53.176;8.194;2022-10-03T17:16:11;13.70;99.90
18444;DHT22;9350;53.176;8.194;2022-10-03T17:18:42;13.70;99.90
18444;DHT22;9350;53.176;8.194;2022-10-03T17:21:20;13.70;99.90
18444;DHT22;9350;53.176;8.194;2022-10-03T17:23:52;13.60;99.90
18444;DHT22;9350;53.176;8.194;2022-10-03T17:26:28;13.60;99.90
18444;DHT22;9350;53.176;8.194;2022-10-03T17:29:03;13.50;99.90
18444;DHT22;9350;53.176;8.194;2022-10-03T17:31:38;13.50;99.90
18444;DHT22;9350;53.176;8.194;2022-10-03T17:34:13;13.50;99.90
18444;DHT22;9350;53.176;8.194;2022-10-03T17:37:04;13.40;99.90
18444;DHT22;9350;53.176;8.194;2022-10-03T17:39:45;13.40;99.90
18444;DHT22;9350;53.176;8.194;2022-10-03T17:42:38;13.40;99.90
18444;DHT22;9350;53.176;8.194;2022-10-03T17:45:21;13.40;99.90
18444;DHT22;9350;53.176;8.194;2022-10-03T17:47:55;13.20;99.90
18444;DHT22;9350;53.176;8.194;2022-10-03T17:50:28;13.20;99.90
18444;DHT22;9350;53.176;8.194;2022-10-03T17:52:56;13.10;99.90
18444;DHT22;9350;53.176;8.194;2022-10-03T17:55:36;13.10;99.90
18444;DHT22;9350;53.176;8.194;2022-10-03T17:58:10;13.10;99.90
18444;DHT22;9350;53.176;8.194;2022-10-03T18:00:58;13.00;99.90
18444;DHT22;9350;53.176;8.194;2022-10-03T18:03:29;13.00;99.90
18444;DHT22;9350;53.176;8.194;2022-10-03T18:06:23;13.00;99.90
18444;DHT22;9350;53.176;8.194;2022-10-03T18:08:49;12.90;99.90
18444;DHT22;9350;53.176;8.194;2022-10-03T18:11:20;12.80;99.90
18444;DHT22;9350;53.176;8.194;2022-10-03T18:13:52;12.80;99.90
18444;DHT22;9350;53.176;8.194;2022-10-03T18:16:29;12.80;99.90
18444;DHT22;9350;53.176;8.194;2022-10-03T18:19:10;12.70;99.90
18444;DHT22;9350;53.176;8.194;2022-10-03T18:21:55;12.70;99.90
18444;DHT22;9350;53.176;8.194;2022-10-03T18:24:38;12.70;99.90
18444;DHT22;9350;53.176;8.194;2022-10-03T18:27:24;12.70;99.90
18444;DHT22;9350;53.176;8.194;2022-10-03T18:29:57;12.70;99.90
18444;DHT22;9350;53.176;8.194;2022-10-03T18:32:26;12.70;99.90
18444;DHT22;9350;53.176;8.194;2022-10-03T18:35:02;12.60;99.90
18444;DHT22;9350;53.176;8.194;2022-10-03T18:37:52;12.60;99.90
18444;DHT22;9350;53.176;8.194;2022-10-03T18:40:24;12.60;99.90
18444;DHT22;9350;53.176;8.194;2022-10-03T18:42:53;12.50;99.90
18444;DHT22;9350;53.176;8.194;2022-10-03T18:45:22;12.50;99.90
18444;DHT22;9350;53.176;8.194;2022-10-03T18:47:53;12.50;99.90
18444;DHT22;9350;53.176;8.194;2022-10-03T18:50:28;12.50;99.90
18444;DHT22;9350;53.176;8.194;2022-10-03T18:53:12;12.40;99.90
18444;DHT22;9350;53.176;8.194;2022-10-03T18:55:42;12.40;99.90
18444;DHT22;9350;53.176;8.194;2022-10-03T18:58:16;12.40;99.90
18444;DHT22;9350;53.176;8.194;2022-10-03T19:00:49;12.40;99.90
18444;DHT22;9350;53.176;8.194;2022-10-03T19:03:19;12.40;99.90
18444;DHT22;9350;53.176;8.194;2022-10-03T19:05:50;12.30;99.90
18444;DHT22;9350;53.176;8.194;2022-10-03T19:08:24;12.30;99.90
18444;DHT22;9350;53.176;8.194;2022-10-03T19:10:52;12.20;99.90
18444;DHT22;9350;53.176;8.194;2022-10-03T19:13:29;12.30;99.90
18444;DHT22;9350;53.176;8.194;2022-10-03T19:16:13;12.30;99.90
18444;DHT22;9350;53.176;8.194;2022-10-03T19:18:44;12.20;99.90
18444;DHT22;9350;53.176;8.194;2022-10-03T19:21:15;12.10;99.90
18444;DHT22;9350;53.176;8.194;2022-10-03T19:23:50;12.10;99.90
18444;DHT22;9350;53.176;8.194;2022-10-03T19:26:21;12.10;99.90
18444;DHT22;9350;53.176;8.194;2022-10-03T19:28:51;12.00;99.90
18444;DHT22;9350;53.176;8.194;2022-10-03T19:31:21;12.10;99.90
18444;DHT22;9350;53.176;8.194;2022-10-03T19:33:51;12.10;99.90
18444;DHT22;9350;53.176;8.194;2022-10-03T19:36:21;12.00;99.90
18444;DHT22;9350;53.176;8.194;2022-10-03T19:38:51;12.10;99.90
18444;DHT22;9350;53.176;8.194;2022-10-03T19:41:26;12.10;99.90
18444;DHT22;9350;53.176;8.194;2022-10-03T19:43:54;12.10;99.90
18444;DHT22;9350;53.176;8.194;2022-10-03T19:46:47;12.00;99.90
18444;DHT22;9350;53.176;8.194;2022-10-03T19:49:29;12.00;99.90